Canebrake, West Virginia
Current Conditions -  °F | °C
As of 10:15 AM on Sunday 21 Dec 2014 (Local Time) from KJFZ Reporting Station
Clear Clear  
Wind Chill:   Ceiling: Unl
Heat Index:   Visibility: 10mi
Dew Point: -2°   Wind: 6mph
Humidity: 77%   Direction: 50°NE
Pressure: 30.22"   Gusts: NA
Location:  37.2686°N, 81.6669°W
Report Text: KJFZ 211515Z AUTO 05005KT 10SM CLR 02/M01 A3022 RMK AO2 T00221015
Loading
Personal Weather Stations






























Interactive Weather Map New forecast layout! Learn more

10-Day Weather Forecast

Advertisements
Track Severe Weather on mobile